createdAt,value
2018-05-21T00:02:04.434Z,90.90
2018-05-21T00:04:31.875Z,90.70
2018-05-21T00:06:59.331Z,90.80
2018-05-21T00:09:26.786Z,90.20
2018-05-21T00:11:54.261Z,90.20
2018-05-21T00:14:21.719Z,90.30
2018-05-21T00:16:49.245Z,90.60
2018-05-21T00:19:16.948Z,90.50
2018-05-21T00:21:44.676Z,90.40
2018-05-21T00:24:12.149Z,90.60
2018-05-21T00:26:39.666Z,90.90
2018-05-21T00:29:07.118Z,90.80
2018-05-21T00:31:35.337Z,91.10
2018-05-21T00:34:02.783Z,91.00
2018-05-21T00:36:30.248Z,91.30
2018-05-21T00:38:57.724Z,91.20
2018-05-21T00:41:25.163Z,91.20
2018-05-21T00:43:52.703Z,91.50
2018-05-21T00:46:20.071Z,91.60
2018-05-21T00:48:47.538Z,91.40
2018-05-21T00:51:14.983Z,91.50
2018-05-21T00:53:42.442Z,91.30
2018-05-21T00:56:09.905Z,91.60
2018-05-21T00:58:37.377Z,91.70
2018-05-21T01:01:04.817Z,91.70
2018-05-21T01:03:32.284Z,91.40
2018-05-21T01:05:59.791Z,91.20
2018-05-21T01:08:27.225Z,91.20
2018-05-21T01:10:54.681Z,91.40
2018-05-21T01:13:22.431Z,90.70
2018-05-21T01:15:49.924Z,91.00
2018-05-21T01:18:17.329Z,91.00
2018-05-21T01:20:44.807Z,91.00
2018-05-21T01:23:12.243Z,91.00
2018-05-21T01:25:39.698Z,90.70
2018-05-21T01:28:07.158Z,91.10
2018-05-21T01:30:34.617Z,91.10
2018-05-21T01:33:02.818Z,91.30
2018-05-21T01:35:30.291Z,91.30
2018-05-21T01:37:57.730Z,91.40
2018-05-21T01:40:25.173Z,91.60
2018-05-21T01:42:52.629Z,91.80
2018-05-21T01:45:20.078Z,91.50
2018-05-21T01:47:47.542Z,91.60
2018-05-21T01:50:15.005Z,91.40
2018-05-21T01:52:42.455Z,91.50
2018-05-21T01:55:09.917Z,91.80
2018-05-21T01:57:37.367Z,91.70
2018-05-21T02:00:05.139Z,91.70
2018-05-21T02:02:32.596Z,91.60
2018-05-21T02:05:00.046Z,91.60
2018-05-21T02:07:27.509Z,91.50
2018-05-21T02:09:54.957Z,91.80
2018-05-21T02:12:22.431Z,91.80
2018-05-21T02:14:49.874Z,91.80
2018-05-21T02:17:17.351Z,91.50
2018-05-21T02:19:44.790Z,91.50
2018-05-21T02:22:12.240Z,91.30
2018-05-21T02:24:39.693Z,91.40
2018-05-21T02:27:07.174Z,91.30
2018-05-21T02:29:34.886Z,91.50
2018-05-21T02:32:02.331Z,91.30
2018-05-21T02:34:29.770Z,91.50
2018-05-21T02:36:57.229Z,91.30
2018-05-21T02:39:24.676Z,91.00
2018-05-21T02:41:52.125Z,91.10
2018-05-21T02:44:19.569Z,90.90
2018-05-21T02:46:47.026Z,90.40
2018-05-21T02:49:14.493Z,90.20
2018-05-21T02:51:41.939Z,90.40
2018-05-21T02:54:09.398Z,90.30
2018-05-21T02:56:36.838Z,90.40
2018-05-21T02:59:04.301Z,90.50
2018-05-21T03:01:31.928Z,90.60
2018-05-21T03:03:59.359Z,90.70
2018-05-21T03:06:26.810Z,91.00
2018-05-21T03:08:54.251Z,91.10
2018-05-21T03:11:21.694Z,90.80
2018-05-21T03:13:49.145Z,90.60
2018-05-21T03:16:16.586Z,90.70
2018-05-21T03:18:44.806Z,90.70
2018-05-21T03:21:12.257Z,90.70
2018-05-21T03:23:39.719Z,90.60
2018-05-21T03:26:07.170Z,90.50
2018-05-21T03:28:34.622Z,90.60
2018-05-21T03:31:02.073Z,90.60
2018-05-21T03:33:29.517Z,90.60
2018-05-21T03:35:56.977Z,90.60
2018-05-21T03:38:24.419Z,90.30
2018-05-21T03:40:52.646Z,90.20
2018-05-21T03:43:20.097Z,90.20
2018-05-21T03:45:47.551Z,90.00
2018-05-21T03:48:15.011Z,90.00
2018-05-21T03:50:42.467Z,90.00
2018-05-21T03:53:09.921Z,90.00
2018-05-21T03:55:37.382Z,88.30
2018-05-21T03:58:04.837Z,87.30
2018-05-21T04:00:44.101Z,87.60
2018-05-21T04:03:26.221Z,88.70
2018-05-21T04:05:53.671Z,88.00
2018-05-21T04:08:21.291Z,87.40
2018-05-21T04:10:48.717Z,85.60
2018-05-21T04:13:16.938Z,85.70
2018-05-21T04:15:44.403Z,85.70
2018-05-21T04:18:11.862Z,85.20
2018-05-21T04:20:39.305Z,84.80
2018-05-21T04:23:06.751Z,84.90
2018-05-21T04:25:35.100Z,84.00
2018-05-21T04:28:03.310Z,84.40
2018-05-21T04:30:30.751Z,84.40
2018-05-21T04:32:58.190Z,82.80
2018-05-21T04:35:26.402Z,82.90
2018-05-21T04:37:53.841Z,83.00
2018-05-21T04:40:21.277Z,83.00
2018-05-21T04:42:49.503Z,82.40
2018-05-21T04:45:16.949Z,82.40
2018-05-21T04:47:44.401Z,81.80
2018-05-21T04:50:11.849Z,82.70
2018-05-21T04:52:39.303Z,83.10
2018-05-21T04:55:06.801Z,82.60
2018-05-21T04:57:34.233Z,83.20
2018-05-21T05:00:01.710Z,81.80
2018-05-21T05:02:29.149Z,82.40
2018-05-21T05:04:56.602Z,82.10
2018-05-21T05:07:24.074Z,77.80
2018-05-21T05:09:52.279Z,78.30
2018-05-21T05:12:19.783Z,78.40
2018-05-21T05:14:47.238Z,77.80
2018-05-21T05:17:15.062Z,78.10
2018-05-21T05:19:42.513Z,76.70
2018-05-21T05:22:09.956Z,75.50
2018-05-21T05:24:37.394Z,74.80
2018-05-21T05:27:04.854Z,73.40
2018-05-21T05:29:32.300Z,72.80
2018-05-21T05:31:59.753Z,71.70
2018-05-21T05:34:27.209Z,71.50
2018-05-21T05:36:54.658Z,70.70
2018-05-21T05:39:22.112Z,70.50
2018-05-21T05:41:50.370Z,72.10
2018-05-21T05:44:17.810Z,72.00
2018-05-21T05:46:45.256Z,71.10
2018-05-21T05:49:12.689Z,70.30
2018-05-21T05:51:40.132Z,69.90
2018-05-21T05:54:07.607Z,67.80
2018-05-21T05:56:35.058Z,65.50
2018-05-21T05:59:02.509Z,65.80
2018-05-21T06:01:29.930Z,66.40
2018-05-21T06:03:57.377Z,69.60
2018-05-21T06:06:24.824Z,69.40
2018-05-21T06:08:52.260Z,66.30
2018-05-21T06:11:19.705Z,68.80
2018-05-21T06:13:47.277Z,66.70
2018-05-21T06:16:15.351Z,67.80
2018-05-21T06:18:42.785Z,67.80
2018-05-21T06:21:10.237Z,68.00
2018-05-21T06:23:37.742Z,66.90
2018-05-21T06:26:05.177Z,64.50
2018-05-21T06:28:32.624Z,63.80
2018-05-21T06:31:00.062Z,63.60
2018-05-21T06:33:28.279Z,62.40
2018-05-21T06:35:55.731Z,62.30
2018-05-21T06:38:23.174Z,62.00
2018-05-21T06:40:50.650Z,62.20
2018-05-21T06:43:18.093Z,61.50
2018-05-21T06:45:45.548Z,61.10
2018-05-21T06:48:13.003Z,60.40
2018-05-21T06:50:40.462Z,60.30
2018-05-21T06:53:08.670Z,61.00
2018-05-21T06:55:36.110Z,61.00
2018-05-21T06:58:03.556Z,59.60
2018-05-21T07:00:31.026Z,60.60
2018-05-21T07:02:58.465Z,60.50
2018-05-21T07:05:25.925Z,60.00
2018-05-21T07:07:53.389Z,59.20
2018-05-21T07:10:21.578Z,59.60
2018-05-21T07:12:49.046Z,59.50
2018-05-21T07:15:16.481Z,59.50
2018-05-21T07:17:43.930Z,58.70
2018-05-21T07:20:11.389Z,58.50
2018-05-21T07:22:38.839Z,58.00
2018-05-21T07:25:06.279Z,58.70
2018-05-21T07:27:34.493Z,57.40
2018-05-21T07:30:01.930Z,57.40
2018-05-21T07:32:29.376Z,58.10
2018-05-21T07:34:56.839Z,57.70
2018-05-21T07:37:24.276Z,56.60
2018-05-21T07:39:51.730Z,57.20
2018-05-21T07:42:19.928Z,55.00
2018-05-21T07:44:47.456Z,55.00
2018-05-21T07:47:14.804Z,55.20
2018-05-21T07:49:42.243Z,54.70
2018-05-21T07:52:09.688Z,55.70
2018-05-21T07:54:37.129Z,55.60
2018-05-21T07:57:04.588Z,55.10
2018-05-21T07:59:32.042Z,54.60
2018-05-21T08:01:59.477Z,54.20
2018-05-21T08:04:27.710Z,53.90
2018-05-21T08:06:55.149Z,53.80
2018-05-21T08:09:22.621Z,53.10
2018-05-21T08:11:56.362Z,53.30
2018-05-21T08:14:24.789Z,53.50
2018-05-21T08:16:52.235Z,53.50
2018-05-21T08:19:19.690Z,52.70
2018-05-21T08:21:47.482Z,52.80
2018-05-21T08:24:14.926Z,52.70
2018-05-21T08:26:42.378Z,52.50
2018-05-21T08:29:09.829Z,52.70
2018-05-21T08:31:37.277Z,52.10
2018-05-21T08:34:04.728Z,53.20
2018-05-21T08:36:32.162Z,52.90
2018-05-21T08:39:00.381Z,53.90
2018-05-21T08:41:27.837Z,53.90
2018-05-21T08:43:55.298Z,53.90
2018-05-21T08:46:22.751Z,52.80
2018-05-21T08:48:50.231Z,50.70
2018-05-21T08:51:17.627Z,51.10
2018-05-21T08:53:45.883Z,50.50
2018-05-21T08:56:13.315Z,50.50
2018-05-21T08:58:40.956Z,50.70
2018-05-21T09:01:08.390Z,49.90
2018-05-21T09:03:36.614Z,50.00
2018-05-21T09:06:04.066Z,50.00
2018-05-21T09:08:31.507Z,49.10
2018-05-21T09:10:58.951Z,48.40
2018-05-21T09:13:26.411Z,48.50
2018-05-21T09:15:53.857Z,49.10
2018-05-21T09:18:21.297Z,49.60
2018-05-21T09:20:49.531Z,47.40
2018-05-21T09:23:16.982Z,47.30
2018-05-21T09:25:44.419Z,47.60
2018-05-21T09:28:11.903Z,47.10
2018-05-21T09:30:39.353Z,47.70
2018-05-21T09:33:06.799Z,46.90
2018-05-21T09:35:34.243Z,47.90
2018-05-21T09:38:01.686Z,46.70
2018-05-21T09:40:29.918Z,45.70
2018-05-21T09:42:57.362Z,45.70
2018-05-21T09:45:24.850Z,46.00
2018-05-21T09:47:52.318Z,45.40
2018-05-21T09:50:19.763Z,43.80
2018-05-21T09:52:47.463Z,44.90
2018-05-21T09:55:14.919Z,44.90
2018-05-21T09:57:43.110Z,44.90
2018-05-21T10:00:11.374Z,44.90
2018-05-21T10:02:39.064Z,45.00
2018-05-21T10:05:06.844Z,44.90
2018-05-21T10:07:34.314Z,44.40
2018-05-21T10:10:01.792Z,44.40
2018-05-21T10:12:29.246Z,44.10
2018-05-21T10:14:56.690Z,44.60
2018-05-21T10:17:24.218Z,40.00
2018-05-21T10:19:51.690Z,39.40
2018-05-21T10:22:19.141Z,40.00
2018-05-21T10:24:46.592Z,39.90
2018-05-21T10:27:14.048Z,40.70
2018-05-21T10:29:41.506Z,39.40
2018-05-21T10:32:08.966Z,38.20
2018-05-21T10:34:36.410Z,38.80
2018-05-21T10:37:03.977Z,39.30
2018-05-21T10:39:31.349Z,39.20
2018-05-21T10:41:59.227Z,38.40
2018-05-21T10:44:26.686Z,37.70
2018-05-21T10:46:54.136Z,39.70
2018-05-21T10:49:21.588Z,39.40
2018-05-21T10:51:49.046Z,40.50
2018-05-21T10:54:16.544Z,40.00
2018-05-21T10:56:43.970Z,40.50
2018-05-21T10:59:11.422Z,40.90
2018-05-21T11:01:38.885Z,40.60
2018-05-21T11:04:06.326Z,38.70
2018-05-21T11:06:35.392Z,38.80
2018-05-21T11:09:03.592Z,39.20
2018-05-21T11:11:31.054Z,39.10
2018-05-21T11:13:58.540Z,38.60
2018-05-21T11:16:26.025Z,38.50
2018-05-21T11:18:53.487Z,38.80
2018-05-21T11:21:21.696Z,39.50
2018-05-21T11:23:49.211Z,39.50
2018-05-21T11:26:16.663Z,39.70
2018-05-21T11:28:44.126Z,39.60
2018-05-21T11:31:11.579Z,39.00
2018-05-21T11:33:39.016Z,37.40
2018-05-21T11:36:06.493Z,38.10
2018-05-21T11:38:33.955Z,37.00
2018-05-21T11:41:02.204Z,36.80
2018-05-21T11:43:30.412Z,36.80
2018-05-21T11:45:57.854Z,37.10
2018-05-21T11:48:25.293Z,36.70
2018-05-21T11:50:52.847Z,36.20
2018-05-21T11:53:20.300Z,35.20
2018-05-21T11:55:47.795Z,33.60
2018-05-21T11:58:15.240Z,34.00
2018-05-21T12:00:42.686Z,33.30
2018-05-21T12:03:10.140Z,33.20
2018-05-21T12:05:37.612Z,33.60
2018-05-21T12:08:05.111Z,33.10
2018-05-21T12:10:33.355Z,34.00
2018-05-21T12:13:00.802Z,33.90
2018-05-21T12:15:28.266Z,33.40
2018-05-21T12:17:55.817Z,33.20
2018-05-21T12:20:23.307Z,32.00
2018-05-21T12:22:50.803Z,32.40
2018-05-21T12:25:18.398Z,31.70
2018-05-21T12:27:46.270Z,32.40
2018-05-21T12:30:13.914Z,32.00
2018-05-21T12:32:41.385Z,33.30
2018-05-21T12:35:09.883Z,33.20
2018-05-21T12:37:37.327Z,33.00
2018-05-21T12:40:04.859Z,31.80
2018-05-21T12:42:32.326Z,32.20
2018-05-21T12:44:59.789Z,32.70
2018-05-21T12:47:27.306Z,32.00
2018-05-21T12:49:54.933Z,31.90
2018-05-21T12:52:22.513Z,31.70
2018-05-21T12:54:49.979Z,31.60
2018-05-21T12:57:17.499Z,31.90
2018-05-21T12:59:44.990Z,32.20
2018-05-21T13:02:13.236Z,30.50
2018-05-21T13:04:40.785Z,30.50
2018-05-21T13:07:08.297Z,30.90
2018-05-21T13:09:36.063Z,32.50
2018-05-21T13:12:03.693Z,32.00
2018-05-21T13:14:31.176Z,32.60
2018-05-21T13:16:58.702Z,32.50
2018-05-21T13:19:26.201Z,32.80
2018-05-21T13:21:53.683Z,32.00
2018-05-21T13:24:21.151Z,32.60
2018-05-21T13:26:48.702Z,32.60
2018-05-21T13:29:16.165Z,33.10
2018-05-21T13:31:43.625Z,33.90
2018-05-21T13:34:11.206Z,34.10
2018-05-21T13:36:38.661Z,34.00
2018-05-21T13:39:06.122Z,34.80
2018-05-21T13:41:33.596Z,33.90
2018-05-21T13:44:01.542Z,34.80
2018-05-21T13:46:29.829Z,35.10
2018-05-21T13:48:58.382Z,34.50
2018-05-21T13:51:27.002Z,33.80
2018-05-21T13:53:54.766Z,34.40
2018-05-21T13:56:22.248Z,33.80
2018-05-21T13:58:50.602Z,34.90
2018-05-21T14:01:18.381Z,34.80
2018-05-21T14:03:46.656Z,34.20
2018-05-21T14:06:15.088Z,33.50
2018-05-21T14:08:43.986Z,34.20
2018-05-21T14:11:12.226Z,35.20
2018-05-21T14:13:40.132Z,34.40
2018-05-21T14:16:08.234Z,34.50
2018-05-21T14:18:36.122Z,34.80
2018-05-21T14:21:06.534Z,34.20
2018-05-21T14:23:36.190Z,34.60
2018-05-21T14:26:03.722Z,34.20
2018-05-21T14:28:32.698Z,34.40
2018-05-21T14:31:01.743Z,35.70
2018-05-21T14:33:29.753Z,35.70
2018-05-21T14:36:01.959Z,36.00
2018-05-21T14:38:32.314Z,36.50
2018-05-21T14:41:00.969Z,35.50
2018-05-21T14:43:35.523Z,35.50
2018-05-21T14:46:03.506Z,34.50
2018-05-21T14:48:35.681Z,34.50
2018-05-21T14:51:03.581Z,35.00
2018-05-21T14:53:32.525Z,34.20
2018-05-21T14:56:01.922Z,33.30
2018-05-21T14:58:30.679Z,35.10
2018-05-21T15:00:58.688Z,35.10
2018-05-21T15:03:28.066Z,35.00
2018-05-21T15:08:42.637Z,34.10
2018-05-21T15:11:10.829Z,33.70
2018-05-21T15:13:42.519Z,33.60
2018-05-21T15:16:12.220Z,33.00
2018-05-21T15:18:40.640Z,33.10
2018-05-21T15:21:08.093Z,33.10
2018-05-21T15:23:41.139Z,33.00
2018-05-21T15:26:08.658Z,33.10
2018-05-21T15:28:38.465Z,34.10
2018-05-21T15:31:06.092Z,34.10
2018-05-21T15:33:36.249Z,33.20
2018-05-21T15:36:04.781Z,32.00
2018-05-21T15:38:32.695Z,32.00
2018-05-21T15:41:02.113Z,31.90
2018-05-21T15:43:30.577Z,31.50
2018-05-21T15:45:58.899Z,31.60
2018-05-21T15:48:26.344Z,31.50
2018-05-21T15:50:53.818Z,31.10
2018-05-21T15:53:21.931Z,31.50
2018-05-21T15:55:50.502Z,30.10
2018-05-21T15:58:20.194Z,30.00
2018-05-21T16:00:48.770Z,30.00
2018-05-21T16:03:16.542Z,30.00
2018-05-21T16:05:50.672Z,30.10
2018-05-21T16:08:22.284Z,29.50
2018-05-21T16:10:50.218Z,29.60
2018-05-21T16:13:17.777Z,29.80
2018-05-21T16:15:45.253Z,29.70
2018-05-21T16:18:13.705Z,28.80
2018-05-21T16:20:45.849Z,28.80
2018-05-21T16:23:13.483Z,29.50
2018-05-21T16:25:41.325Z,30.00
2018-05-21T16:28:09.175Z,30.70
2018-05-21T16:30:37.382Z,30.00
2018-05-21T16:33:05.577Z,29.50
2018-05-21T16:35:33.031Z,29.60
2018-05-21T16:38:00.481Z,29.20
2018-05-21T16:40:28.232Z,29.40
2018-05-21T16:42:56.001Z,30.00
2018-05-21T16:45:23.565Z,29.80
2018-05-21T16:47:51.938Z,29.70
2018-05-21T16:50:19.749Z,29.60
2018-05-21T16:52:47.473Z,29.20
2018-05-21T16:55:14.910Z,30.30
2018-05-21T16:57:43.129Z,30.40
2018-05-21T17:00:10.669Z,30.40
2018-05-21T17:02:38.564Z,31.10
2018-05-21T17:05:06.395Z,31.70
2018-05-21T17:07:34.406Z,31.90
2018-05-21T17:10:01.997Z,31.70
2018-05-21T17:12:29.669Z,32.00
2018-05-21T17:14:57.397Z,32.90
2018-05-21T17:17:25.780Z,32.80
2018-05-21T17:19:53.330Z,32.90
2018-05-21T17:22:20.781Z,32.80
2018-05-21T17:24:48.250Z,33.10
2018-05-21T17:27:15.717Z,32.50
2018-05-21T17:29:43.548Z,33.60
2018-05-21T17:32:11.146Z,32.90
2018-05-21T17:34:38.605Z,33.10
2018-05-21T17:37:07.667Z,33.10
2018-05-21T17:39:35.245Z,33.10
2018-05-21T17:42:02.696Z,34.10
2018-05-21T17:44:30.134Z,34.40
2018-05-21T17:46:57.575Z,34.60
2018-05-21T17:49:25.007Z,34.00
2018-05-21T17:51:52.466Z,34.60
2018-05-21T17:54:19.909Z,35.00
2018-05-21T17:56:47.416Z,35.90
2018-05-21T17:59:14.803Z,35.00
2018-05-21T18:01:42.238Z,36.10
2018-05-21T18:04:09.688Z,36.70
2018-05-21T18:06:37.141Z,37.50
2018-05-21T18:09:06.654Z,37.70
2018-05-21T18:11:34.131Z,37.70
2018-05-21T18:14:01.585Z,37.80
2018-05-21T18:16:29.064Z,38.50
2018-05-21T18:18:56.507Z,39.00
2018-05-21T18:21:23.979Z,39.30
2018-05-21T18:23:51.427Z,39.80
2018-05-21T18:26:18.863Z,40.00
2018-05-21T18:28:46.317Z,40.10
2018-05-21T18:31:13.768Z,40.30
2018-05-21T18:33:41.977Z,40.80
2018-05-21T18:36:09.426Z,40.80
2018-05-21T18:38:36.858Z,41.00
2018-05-21T18:41:04.673Z,41.50
2018-05-21T18:43:32.432Z,41.80
2018-05-21T18:45:59.956Z,42.20
2018-05-21T18:48:27.517Z,42.30
2018-05-21T18:50:55.605Z,44.60
2018-05-21T18:53:23.053Z,44.50
2018-05-21T18:55:50.485Z,45.50
2018-05-21T18:58:18.682Z,47.90
2018-05-21T19:00:46.138Z,47.80
2018-05-21T19:03:13.609Z,48.00
2018-05-21T19:05:41.077Z,47.80
2018-05-21T19:08:08.541Z,47.40
2018-05-21T19:10:35.997Z,47.10
2018-05-21T19:13:03.739Z,47.30
2018-05-21T19:15:31.186Z,47.60
2018-05-21T19:17:58.633Z,48.10
2018-05-21T19:20:26.833Z,52.50
2018-05-21T19:22:54.299Z,52.60
2018-05-21T19:25:21.737Z,53.00
2018-05-21T19:27:49.189Z,53.70
2018-05-21T19:30:16.655Z,52.20
2018-05-21T19:32:44.090Z,51.50
2018-05-21T19:35:11.895Z,51.20
2018-05-21T19:37:39.600Z,51.40
2018-05-21T19:40:07.123Z,51.60
2018-05-21T19:42:34.593Z,51.50
2018-05-21T19:45:02.038Z,51.70
2018-05-21T19:47:29.470Z,51.80
2018-05-21T19:49:57.768Z,51.80
2018-05-21T19:52:25.209Z,52.20
2018-05-21T19:54:52.674Z,52.40
2018-05-21T19:57:20.566Z,52.40
2018-05-21T19:59:48.051Z,52.30
2018-05-21T20:02:15.462Z,52.00
2018-05-21T20:04:42.964Z,51.70
2018-05-21T20:07:11.735Z,51.00
2018-05-21T20:09:41.215Z,50.70
2018-05-21T20:12:08.657Z,50.70
2018-05-21T20:14:36.097Z,50.90
2018-05-21T20:17:04.326Z,51.20
2018-05-21T20:19:32.093Z,51.20
2018-05-21T20:21:59.549Z,51.20
2018-05-21T20:24:26.989Z,51.40
2018-05-21T20:26:54.716Z,51.60
2018-05-21T20:29:22.212Z,52.10
2018-05-21T20:31:49.710Z,52.90
2018-05-21T20:34:17.148Z,53.40
2018-05-21T20:36:44.587Z,53.10
2018-05-21T20:39:12.044Z,53.60
2018-05-21T20:41:39.477Z,53.50
2018-05-21T20:44:06.933Z,53.30
2018-05-21T20:46:34.462Z,53.30
2018-05-21T20:49:01.905Z,53.20
2018-05-21T20:51:29.379Z,53.10
2018-05-21T20:53:56.821Z,53.00
2018-05-21T20:56:24.575Z,53.10
2018-05-21T20:58:52.014Z,53.20
2018-05-21T21:01:19.471Z,53.00
2018-05-21T21:03:46.905Z,53.20
2018-05-21T21:06:14.345Z,53.10
2018-05-21T21:08:41.799Z,53.10
2018-05-21T21:11:09.238Z,53.00
2018-05-21T21:13:36.680Z,53.10
2018-05-21T21:16:04.126Z,53.10
2018-05-21T21:18:31.571Z,53.30
2018-05-21T21:20:59.023Z,53.20
2018-05-21T21:23:26.605Z,53.20
2018-05-21T21:25:53.940Z,53.30
2018-05-21T21:28:21.683Z,53.30
2018-05-21T21:30:49.734Z,53.50
2018-05-21T21:33:17.174Z,53.40
2018-05-21T21:35:45.830Z,53.60
2018-05-21T21:38:14.319Z,53.70
2018-05-21T21:40:42.478Z,54.00
2018-05-21T21:43:10.689Z,54.10
2018-05-21T21:45:38.148Z,54.10
2018-05-21T21:48:05.656Z,54.40
2018-05-21T21:50:33.100Z,54.60
2018-05-21T21:53:01.343Z,55.30
2018-05-21T21:55:28.899Z,55.30
2018-05-21T21:57:57.154Z,55.50
2018-05-21T22:00:24.725Z,55.40
2018-05-21T22:02:52.291Z,56.10
2018-05-21T22:05:19.763Z,56.80
2018-05-21T22:07:47.206Z,57.00
2018-05-21T22:10:14.665Z,57.70
2018-05-21T22:12:42.776Z,58.50
2018-05-21T22:15:10.246Z,58.40
2018-05-21T22:17:37.821Z,58.60
2018-05-21T22:20:05.336Z,58.50
2018-05-21T22:22:32.786Z,59.20
2018-05-21T22:25:00.283Z,58.80
2018-05-21T22:27:27.798Z,58.30
2018-05-21T22:29:55.254Z,58.80
2018-05-21T22:32:22.694Z,59.30
2018-05-21T22:34:50.226Z,59.50
2018-05-21T22:37:17.668Z,59.70
2018-05-21T22:39:45.098Z,60.10
2018-05-21T22:42:12.567Z,60.80
2018-05-21T22:44:41.927Z,60.80
2018-05-21T22:47:09.399Z,61.30
2018-05-21T22:49:36.891Z,61.10
2018-05-21T22:52:04.344Z,61.10
2018-05-21T22:54:36.446Z,62.50
2018-05-21T22:57:03.885Z,62.40
2018-05-21T22:59:31.346Z,63.10
2018-05-21T23:01:58.822Z,63.00
2018-05-21T23:04:26.459Z,62.90
2018-05-21T23:06:53.924Z,62.80
2018-05-21T23:09:21.363Z,63.70
2018-05-21T23:11:51.492Z,64.10
2018-05-21T23:14:20.504Z,64.00
2018-05-21T23:16:47.973Z,63.80
2018-05-21T23:19:15.429Z,60.90
2018-05-21T23:21:42.881Z,59.30
2018-05-21T23:24:10.305Z,59.00
2018-05-21T23:26:37.842Z,59.00
2018-05-21T23:29:06.075Z,59.20
2018-05-21T23:31:33.511Z,59.30
2018-05-21T23:34:00.972Z,59.20
2018-05-21T23:36:28.414Z,59.20
2018-05-21T23:38:56.633Z,59.50
2018-05-21T23:41:28.389Z,59.50
2018-05-21T23:44:03.523Z,60.10
2018-05-21T23:46:32.021Z,59.70
2018-05-21T23:48:59.489Z,60.50
2018-05-21T23:51:26.921Z,61.90
2018-05-21T23:53:54.382Z,62.60
2018-05-21T23:56:21.833Z,62.00
2018-05-21T23:58:49.282Z,62.70
